createdAt,value
2018-07-12T00:01:04.188Z,5.53
2018-07-12T00:03:32.091Z,4.28
2018-07-12T00:06:00.373Z,5.08
2018-07-12T00:08:28.235Z,4.78
2018-07-12T00:10:56.103Z,4.80
2018-07-12T00:13:23.967Z,5.28
2018-07-12T00:15:52.131Z,5.30
2018-07-12T00:18:20.121Z,4.97
2018-07-12T00:20:47.979Z,5.08
2018-07-12T00:23:15.847Z,4.65
2018-07-12T00:25:43.707Z,4.70
2018-07-12T00:28:11.339Z,4.70
2018-07-12T00:30:39.044Z,4.42
2018-07-12T00:33:07.103Z,4.55
2018-07-12T00:35:34.779Z,4.50
2018-07-12T00:38:02.634Z,4.60
2018-07-12T00:40:30.447Z,4.53
2018-07-12T00:42:58.371Z,5.12
2018-07-12T00:45:26.235Z,5.20
2018-07-12T00:47:54.106Z,4.75
2018-07-12T00:50:22.303Z,4.47
2018-07-12T00:52:50.247Z,4.80
2018-07-12T00:55:18.116Z,6.17
2018-07-12T00:57:45.986Z,4.75
2018-07-12T01:00:13.613Z,4.78
2018-07-12T01:02:41.250Z,5.70
2018-07-12T01:05:09.172Z,5.03
2018-07-12T01:07:37.091Z,4.80
2018-07-12T01:10:04.915Z,4.90
2018-07-12T01:12:32.558Z,4.25
2018-07-12T01:15:00.243Z,4.67
2018-07-12T01:17:27.871Z,4.42
2018-07-12T01:19:55.893Z,5.40
2018-07-12T01:22:23.795Z,5.10
2018-07-12T01:24:51.642Z,4.87
2018-07-12T01:27:19.563Z,4.75
2018-07-12T01:29:47.434Z,5.08
2018-07-12T01:32:15.235Z,4.62
2018-07-12T01:34:42.864Z,4.33
2018-07-12T01:37:10.959Z,5.10
2018-07-12T01:39:38.594Z,6.20
2018-07-12T01:42:06.360Z,5.70
2018-07-12T01:44:34.220Z,5.40
2018-07-12T01:47:02.091Z,4.58
2018-07-12T01:49:29.957Z,4.90
2018-07-12T01:51:57.823Z,4.72
2018-07-12T01:54:25.723Z,4.95
2018-07-12T01:56:53.559Z,4.87
2018-07-12T01:59:21.423Z,5.33
2018-07-12T02:01:49.291Z,5.10
2018-07-12T02:04:17.161Z,6.42
2018-07-12T02:06:44.958Z,5.67
2018-07-12T02:09:12.835Z,5.35
2018-07-12T02:11:41.096Z,6.47
2018-07-12T02:14:09.722Z,4.87
2018-07-12T02:16:37.719Z,5.30
2018-07-12T02:19:05.590Z,4.55
2018-07-12T02:21:33.395Z,4.50
2018-07-12T02:24:01.259Z,5.60
2018-07-12T02:26:28.926Z,5.60
2018-07-12T02:28:56.706Z,5.12
2018-07-12T02:31:24.519Z,5.58
2018-07-12T02:33:52.325Z,5.05
2018-07-12T02:36:20.258Z,4.72
2018-07-12T02:38:48.108Z,5.37
2018-07-12T02:41:15.923Z,5.40
2018-07-12T02:43:43.843Z,5.05
2018-07-12T02:46:12.059Z,5.65
2018-07-12T02:48:39.725Z,5.58
2018-07-12T02:51:07.397Z,5.37
2018-07-12T02:53:35.313Z,5.30
2018-07-12T02:56:03.188Z,5.30
2018-07-12T02:58:30.822Z,5.97
2018-07-12T03:00:58.847Z,5.40
2018-07-12T03:03:26.714Z,5.10
2018-07-12T03:05:54.339Z,4.72
2018-07-12T03:08:22.103Z,5.25
2018-07-12T03:10:49.756Z,5.90
2018-07-12T03:13:17.835Z,5.65
2018-07-12T03:15:45.703Z,5.95
2018-07-12T03:18:13.571Z,4.92
2018-07-12T03:20:41.247Z,4.53
2018-07-12T03:23:09.303Z,6.12
2018-07-12T03:25:37.173Z,5.97
2018-07-12T03:28:05.040Z,5.25
2018-07-12T03:30:32.676Z,7.22
2018-07-12T03:33:00.310Z,6.28
2018-07-12T03:35:28.635Z,5.12
2018-07-12T03:37:56.839Z,5.70
2018-07-12T03:40:24.826Z,4.85
2018-07-12T03:42:52.652Z,5.20
2018-07-12T03:45:20.284Z,5.40
2018-07-12T03:47:48.435Z,6.20
2018-07-12T03:50:16.064Z,5.87
2018-07-12T03:52:43.699Z,5.58
2018-07-12T03:55:11.565Z,5.60
2018-07-12T03:57:39.443Z,5.12
2018-07-12T04:00:07.312Z,6.62
2018-07-12T04:02:35.175Z,5.65
2018-07-12T04:05:02.807Z,5.90
2018-07-12T04:07:30.443Z,6.10
2018-07-12T04:09:58.364Z,5.65
2018-07-12T04:12:26.255Z,5.58
2018-07-12T04:14:54.037Z,5.53
2018-07-12T04:17:29.879Z,6.20
2018-07-12T04:19:58.879Z,5.87
2018-07-12T04:22:27.963Z,5.80
2018-07-12T04:24:55.616Z,5.92
2018-07-12T04:27:23.676Z,5.85
2018-07-12T04:29:52.763Z,5.80
2018-07-12T04:32:20.635Z,5.10
2018-07-12T04:34:49.514Z,5.80
2018-07-12T04:37:17.827Z,5.83
2018-07-12T04:39:46.285Z,5.40
2018-07-12T04:42:14.175Z,5.40
2018-07-12T04:44:41.956Z,5.60
2018-07-12T04:47:09.947Z,6.45
2018-07-12T04:49:37.751Z,5.50
2018-07-12T04:52:05.625Z,5.70
2018-07-12T04:54:33.486Z,5.47
2018-07-12T04:57:01.326Z,6.12
2018-07-12T04:59:29.215Z,5.28
2018-07-12T05:01:56.843Z,5.62
2018-07-12T05:04:24.955Z,5.70
2018-07-12T05:06:53.170Z,6.85
2018-07-12T05:09:21.039Z,4.90
2018-07-12T05:11:48.675Z,6.10
2018-07-12T05:14:16.419Z,5.55
2018-07-12T05:16:44.227Z,5.00
2018-07-12T05:19:12.153Z,5.72
2018-07-12T05:21:39.956Z,5.03
2018-07-12T05:24:07.833Z,5.70
2018-07-12T05:26:35.463Z,5.33
2018-07-12T05:29:03.093Z,5.33
2018-07-12T05:31:31.072Z,5.55
2018-07-12T05:33:58.727Z,5.58
2018-07-12T05:37:02.859Z,4.75
2018-07-12T05:39:31.087Z,4.90
2018-07-12T05:41:59.734Z,5.45
2018-07-12T05:44:28.101Z,4.65
2018-07-12T05:46:56.315Z,5.00
2018-07-12T05:49:24.539Z,5.40
2018-07-12T05:51:52.925Z,5.17
2018-07-12T05:54:21.207Z,5.10
2018-07-12T05:56:49.479Z,5.80
2018-07-12T05:59:18.603Z,4.80
2018-07-12T06:01:52.581Z,4.85
2018-07-12T06:04:21.619Z,4.80
2018-07-12T06:06:49.954Z,5.35
2018-07-12T06:09:18.630Z,4.60
2018-07-12T06:11:46.923Z,4.55
2018-07-12T06:14:15.139Z,4.00
2018-07-12T06:16:43.353Z,4.45
2018-07-12T06:19:11.583Z,4.20
2018-07-12T06:21:40.217Z,4.17
2018-07-12T06:24:08.428Z,5.12
2018-07-12T06:26:36.859Z,4.30
2018-07-12T06:29:05.259Z,4.55
2018-07-12T06:31:33.546Z,3.92
2018-07-12T06:34:01.819Z,4.37
2018-07-12T06:36:30.043Z,4.70
2018-07-12T06:38:58.703Z,4.87
2018-07-12T06:41:26.931Z,4.10
2018-07-12T06:43:55.330Z,5.53
2018-07-12T06:46:23.608Z,4.12
2018-07-12T06:48:51.827Z,4.75
2018-07-12T06:51:20.061Z,4.97
2018-07-12T06:53:48.443Z,4.87
2018-07-12T06:56:16.807Z,4.15
2018-07-12T06:58:45.294Z,3.85
2018-07-12T07:01:13.527Z,4.35
2018-07-12T07:03:41.948Z,4.60
2018-07-12T07:06:10.196Z,3.80
2018-07-12T07:08:38.911Z,4.00
2018-07-12T07:11:07.675Z,3.65
2018-07-12T07:13:35.955Z,4.70
2018-07-12T07:16:04.172Z,3.75
2018-07-12T07:18:32.424Z,4.37
2018-07-12T07:21:00.704Z,4.55
2018-07-12T07:23:28.924Z,4.15
2018-07-12T07:25:57.248Z,4.50
2018-07-12T07:28:25.481Z,4.10
2018-07-12T07:30:53.851Z,3.50
2018-07-12T07:33:22.077Z,4.50
2018-07-12T07:35:50.452Z,4.10
2018-07-12T07:38:18.673Z,4.12
2018-07-12T07:40:46.920Z,4.17
2018-07-12T07:43:15.194Z,4.45
2018-07-12T07:45:43.471Z,4.05
2018-07-12T07:48:11.756Z,4.05
2018-07-12T07:50:40.338Z,4.03
2018-07-12T07:53:08.986Z,5.00
2018-07-12T07:55:37.212Z,5.45
2018-07-12T07:58:05.668Z,4.53
2018-07-12T08:00:34.355Z,4.80
2018-07-12T08:03:02.981Z,5.05
2018-07-12T08:05:31.316Z,4.60
2018-07-12T08:07:59.596Z,4.95
2018-07-12T08:10:27.844Z,4.92
2018-07-12T08:12:56.151Z,5.10
2018-07-12T08:15:24.426Z,4.55
2018-07-12T08:17:52.703Z,4.83
2018-07-12T08:20:22.235Z,4.22
2018-07-12T08:22:50.885Z,4.72
2018-07-12T08:25:19.179Z,4.85
2018-07-12T08:27:52.887Z,5.00
2018-07-12T08:30:21.143Z,5.00
2018-07-12T08:32:49.406Z,4.80
2018-07-12T08:35:17.721Z,4.78
2018-07-12T08:37:46.295Z,4.55
2018-07-12T08:40:14.979Z,5.08
2018-07-12T08:42:43.549Z,4.75
2018-07-12T08:45:12.052Z,4.55
2018-07-12T08:47:40.629Z,4.40
2018-07-12T08:50:08.910Z,4.08
2018-07-12T08:52:38.390Z,4.00
2018-07-12T08:55:06.656Z,4.15
2018-07-12T08:57:34.967Z,3.75
2018-07-12T09:00:04.353Z,4.20
2018-07-12T09:02:32.609Z,4.10
2018-07-12T09:05:01.019Z,4.40
2018-07-12T09:07:29.292Z,4.30
2018-07-12T09:09:57.563Z,3.83
2018-07-12T09:12:26.180Z,4.40
2018-07-12T09:14:54.531Z,5.20
2018-07-12T09:17:22.772Z,4.47
2018-07-12T09:19:51.019Z,4.10
2018-07-12T09:22:19.251Z,4.22
2018-07-12T09:24:47.476Z,4.65
2018-07-12T09:27:16.131Z,4.30
2018-07-12T09:29:44.640Z,4.37
2018-07-12T09:32:12.878Z,4.83
2018-07-12T09:34:41.971Z,4.17
2018-07-12T09:37:10.203Z,4.60
2018-07-12T09:39:38.530Z,4.37
2018-07-12T09:42:06.812Z,4.75
2018-07-12T09:44:35.086Z,4.35
2018-07-12T09:47:03.690Z,4.00
2018-07-12T09:49:32.047Z,4.12
2018-07-12T09:52:00.321Z,3.98
2018-07-12T09:54:28.556Z,3.95
2018-07-12T09:57:02.248Z,4.33
2018-07-12T09:59:30.526Z,4.90
2018-07-12T10:02:04.097Z,4.33
2018-07-12T10:04:32.388Z,3.95
2018-07-12T10:07:06.006Z,3.67
2018-07-12T10:09:39.596Z,3.65
2018-07-12T10:12:11.182Z,4.10
2018-07-12T10:14:44.775Z,4.00
2018-07-12T10:17:17.349Z,4.42
2018-07-12T10:19:45.804Z,3.35
2018-07-12T10:22:14.069Z,4.40
2018-07-12T10:24:42.351Z,4.10
2018-07-12T10:27:10.580Z,3.70
2018-07-12T10:29:39.276Z,3.83
2018-07-12T10:32:07.540Z,3.85
2018-07-12T10:34:35.785Z,3.62
2018-07-12T10:37:04.031Z,4.35
2018-07-12T10:39:32.349Z,3.65
2018-07-12T10:42:00.685Z,3.40
2018-07-12T10:44:29.374Z,3.95
2018-07-12T10:47:01.190Z,3.45
2018-07-12T10:49:32.760Z,4.87
2018-07-12T10:52:03.876Z,3.80
2018-07-12T10:54:32.131Z,3.75
2018-07-12T10:57:00.891Z,3.90
2018-07-12T10:59:29.668Z,2.98
2018-07-12T11:01:58.335Z,3.22
2018-07-12T11:04:26.665Z,3.27
2018-07-12T11:06:54.879Z,3.42
2018-07-12T11:09:23.169Z,4.08
2018-07-12T11:11:51.860Z,2.95
2018-07-12T11:14:20.142Z,2.85
2018-07-12T11:16:48.410Z,4.10
2018-07-12T11:19:16.673Z,3.80
2018-07-12T11:21:45.365Z,3.17
2018-07-12T11:24:13.649Z,3.50
2018-07-12T11:26:41.896Z,3.25
2018-07-12T11:29:10.139Z,3.10
2018-07-12T11:31:38.379Z,3.20
2018-07-12T11:34:06.624Z,2.90
2018-07-12T11:36:34.858Z,3.83
2018-07-12T11:39:03.272Z,3.35
2018-07-12T11:41:31.525Z,3.05
2018-07-12T11:43:59.856Z,3.15
2018-07-12T11:46:28.136Z,3.52
2018-07-12T11:48:56.684Z,2.70
2018-07-12T11:51:25.096Z,3.50
2018-07-12T11:53:53.376Z,3.50
2018-07-12T11:56:21.812Z,3.20
2018-07-12T11:58:50.343Z,3.87
2018-07-12T12:01:18.638Z,2.98
2018-07-12T12:03:47.305Z,3.30
2018-07-12T12:06:15.548Z,3.00
2018-07-12T12:08:43.796Z,3.20
2018-07-12T12:11:12.124Z,2.80
2018-07-12T12:13:40.429Z,2.30
2018-07-12T12:16:08.697Z,3.33
2018-07-12T12:18:36.953Z,2.80
2018-07-12T12:21:05.250Z,2.90
2018-07-12T12:23:33.528Z,2.80
2018-07-12T12:26:01.827Z,2.30
2018-07-12T12:28:30.120Z,3.20
2018-07-12T12:30:58.379Z,2.63
2018-07-12T12:33:26.690Z,2.93
2018-07-12T12:35:54.951Z,2.80
2018-07-12T12:38:23.310Z,2.90
2018-07-12T12:40:51.863Z,2.23
2018-07-12T12:43:20.140Z,2.50
2018-07-12T12:45:48.419Z,2.90
2018-07-12T12:48:16.964Z,2.30
2018-07-12T12:50:45.399Z,2.80
2018-07-12T12:53:13.634Z,2.70
2018-07-12T12:55:42.234Z,2.63
2018-07-12T12:58:10.564Z,2.40
2018-07-12T13:00:38.788Z,2.40
2018-07-12T13:03:07.160Z,2.70
2018-07-12T13:05:35.440Z,2.57
2018-07-12T13:08:04.082Z,2.10
2018-07-12T13:10:32.311Z,2.30
2018-07-12T13:13:00.675Z,2.67
2018-07-12T13:15:28.956Z,2.00
2018-07-12T13:17:57.232Z,2.57
2018-07-12T13:20:25.507Z,2.13
2018-07-12T13:22:53.771Z,2.30
2018-07-12T13:25:22.909Z,2.43
2018-07-12T13:27:51.224Z,2.30
2018-07-12T13:30:20.119Z,2.40
2018-07-12T13:32:48.405Z,2.00
2018-07-12T13:35:16.640Z,2.63
2018-07-12T13:37:44.872Z,2.17
2018-07-12T13:40:13.365Z,2.10
2018-07-12T13:42:41.598Z,2.00
2018-07-12T13:45:09.832Z,2.00
2018-07-12T13:47:38.184Z,2.40
2018-07-12T13:50:06.871Z,2.07
2018-07-12T13:52:35.295Z,2.97
2018-07-12T13:55:03.544Z,2.17
2018-07-12T13:57:31.783Z,1.87
2018-07-12T14:00:00.388Z,1.80
2018-07-12T14:02:28.659Z,2.07
2018-07-12T14:04:56.893Z,1.47
2018-07-12T14:07:25.245Z,1.93
2018-07-12T14:09:53.519Z,2.43
2018-07-12T14:12:21.743Z,2.00
2018-07-12T14:14:50.677Z,2.33
2018-07-12T14:17:19.171Z,2.23
2018-07-12T14:19:47.454Z,2.60
2018-07-12T14:22:16.154Z,1.90
2018-07-12T14:24:44.410Z,1.90
2018-07-12T14:27:13.511Z,2.03
2018-07-12T14:29:41.740Z,1.73
2018-07-12T14:32:10.027Z,2.30
2018-07-12T14:34:38.304Z,1.50
2018-07-12T14:37:06.598Z,2.37
2018-07-12T14:39:35.196Z,2.10
2018-07-12T14:42:03.452Z,2.10
2018-07-12T14:44:31.885Z,1.83
2018-07-12T14:47:00.129Z,2.17
2018-07-12T14:49:28.376Z,1.43
2018-07-12T14:51:56.652Z,2.13
2018-07-12T14:54:25.349Z,1.83
2018-07-12T14:56:53.644Z,1.83
2018-07-12T14:59:21.872Z,1.60
2018-07-12T15:01:50.109Z,2.83
2018-07-12T15:04:18.341Z,1.90
2018-07-12T15:06:46.716Z,2.30
2018-07-12T15:09:15.017Z,1.77
2018-07-12T15:11:43.685Z,2.47
2018-07-12T15:14:12.291Z,2.77
2018-07-12T15:16:40.711Z,2.13
2018-07-12T15:19:08.921Z,1.90
2018-07-12T15:21:37.610Z,2.00
2018-07-12T15:24:05.883Z,2.03
2018-07-12T15:26:34.160Z,1.97
2018-07-12T15:29:02.436Z,2.50
2018-07-12T15:31:30.776Z,2.10
2018-07-12T15:33:58.991Z,2.30
2018-07-12T15:36:27.284Z,2.60
2018-07-12T15:38:55.545Z,2.00
2018-07-12T15:41:24.210Z,3.80
2018-07-12T15:43:52.452Z,2.67
2018-07-12T15:46:20.697Z,2.40
2018-07-12T15:48:49.479Z,2.30
2018-07-12T15:51:17.743Z,2.60
2018-07-12T15:53:46.022Z,2.07
2018-07-12T15:56:14.253Z,2.30
2018-07-12T15:58:42.507Z,3.13
2018-07-12T16:01:10.856Z,3.37
2018-07-12T16:03:39.133Z,2.40
2018-07-12T16:06:07.742Z,3.00
2018-07-12T16:08:36.504Z,2.70
2018-07-12T16:11:04.772Z,2.30
2018-07-12T16:13:33.051Z,2.13
2018-07-12T16:16:01.271Z,3.27
2018-07-12T16:18:29.631Z,3.00
2018-07-12T16:20:57.916Z,3.30
2018-07-12T16:23:26.156Z,3.80
2018-07-12T16:25:54.421Z,3.43
2018-07-12T16:28:22.712Z,2.90
2018-07-12T16:30:50.939Z,2.87
2018-07-12T16:33:19.207Z,3.13
2018-07-12T16:35:47.871Z,3.10
2018-07-12T16:38:16.261Z,2.93
2018-07-12T16:40:44.948Z,3.90
2018-07-12T16:43:13.172Z,3.00
2018-07-12T16:45:41.460Z,3.17
2018-07-12T16:48:09.739Z,2.80
2018-07-12T16:50:38.028Z,3.03
2018-07-12T16:53:06.912Z,2.90
2018-07-12T16:55:35.391Z,3.03
2018-07-12T16:58:03.668Z,3.43
2018-07-12T17:00:32.337Z,3.43
2018-07-12T17:03:00.605Z,3.62
2018-07-12T17:05:28.836Z,3.10
2018-07-12T17:07:57.180Z,4.12
2018-07-12T17:10:25.782Z,3.95
2018-07-12T17:12:54.222Z,3.00
2018-07-12T17:15:22.826Z,2.92
2018-07-12T17:17:51.512Z,3.30
2018-07-12T17:20:19.748Z,3.47
2018-07-12T17:22:48.067Z,3.22
2018-07-12T17:25:16.288Z,3.35
2018-07-12T17:27:44.892Z,2.98
2018-07-12T17:30:13.164Z,2.90
2018-07-12T17:32:41.434Z,3.00
2018-07-12T17:35:09.703Z,3.20
2018-07-12T17:37:38.134Z,3.60
2018-07-12T17:40:06.398Z,2.70
2018-07-12T17:42:34.634Z,2.87
2018-07-12T17:45:03.318Z,3.20
2018-07-12T17:47:31.588Z,2.62
2018-07-12T17:49:59.929Z,3.40
2018-07-12T17:52:28.212Z,3.42
2018-07-12T17:54:56.480Z,3.35
2018-07-12T17:57:24.761Z,2.87
2018-07-12T17:59:53.038Z,3.05
2018-07-12T18:02:21.284Z,2.90
2018-07-12T18:04:49.584Z,2.92
2018-07-12T18:07:18.339Z,2.87
2018-07-12T18:09:46.576Z,3.62
2018-07-12T18:12:15.250Z,2.75
2018-07-12T18:14:43.508Z,3.35
2018-07-12T18:17:12.196Z,2.90
2018-07-12T18:19:40.488Z,2.98
2018-07-12T18:22:09.187Z,3.25
2018-07-12T18:24:37.491Z,3.05
2018-07-12T18:27:05.731Z,3.55
2018-07-12T18:29:34.012Z,3.75
2018-07-12T18:32:02.271Z,3.17
2018-07-12T18:34:30.940Z,4.37
2018-07-12T18:36:59.184Z,3.65
2018-07-12T18:39:27.424Z,4.25
2018-07-12T18:41:55.679Z,4.15
2018-07-12T18:44:24.060Z,5.65
2018-07-12T18:46:52.740Z,4.67
2018-07-12T18:49:21.013Z,3.90
2018-07-12T18:51:49.289Z,4.03
2018-07-12T18:54:17.580Z,4.15
2018-07-12T18:56:45.858Z,4.08
2018-07-12T18:59:14.540Z,3.72
2018-07-12T19:01:42.852Z,4.33
2018-07-12T19:04:11.085Z,4.28
2018-07-12T19:06:39.369Z,4.12
2018-07-12T19:09:08.936Z,4.47
2018-07-12T19:11:37.556Z,4.35
2018-07-12T19:14:06.267Z,4.67
2018-07-12T19:16:34.510Z,4.55
2018-07-12T19:19:03.000Z,3.67
2018-07-12T19:21:31.296Z,3.55
2018-07-12T19:23:59.759Z,3.60
2018-07-12T19:26:28.003Z,5.03
2018-07-12T19:28:56.324Z,3.62
2018-07-12T19:31:24.923Z,4.45
2018-07-12T19:33:53.620Z,4.58
2018-07-12T19:36:21.903Z,4.58
2018-07-12T19:38:50.281Z,4.70
2018-07-12T19:41:18.551Z,4.62
2018-07-12T19:43:46.794Z,4.67
2018-07-12T19:46:15.024Z,4.53
2018-07-12T19:48:43.680Z,5.65
2018-07-12T19:51:12.027Z,5.40
2018-07-12T19:53:40.269Z,4.60
2018-07-12T19:56:08.579Z,5.55
2018-07-12T19:58:36.812Z,5.33
2018-07-12T20:01:05.047Z,5.05
2018-07-12T20:03:33.588Z,4.37
2018-07-12T20:06:02.430Z,5.90
2018-07-12T20:08:30.791Z,5.37
2018-07-12T20:10:59.057Z,6.65
2018-07-12T20:13:27.331Z,8.78
2018-07-12T20:15:55.570Z,6.40
2018-07-12T20:18:23.815Z,6.28
2018-07-12T20:20:52.060Z,5.05
2018-07-12T20:23:20.904Z,5.50
2018-07-12T20:25:49.546Z,5.55
2018-07-12T20:28:18.115Z,5.87
2018-07-12T20:30:46.506Z,5.25
2018-07-12T20:33:15.048Z,5.20
2018-07-12T20:35:43.464Z,5.67
2018-07-12T20:38:11.751Z,6.83
2018-07-12T20:40:40.349Z,7.58
2018-07-12T20:43:09.228Z,7.90
2018-07-12T20:45:37.459Z,6.17
2018-07-12T20:48:05.978Z,7.17
2018-07-12T20:50:34.239Z,7.20
2018-07-12T20:53:02.629Z,6.80
2018-07-12T20:55:30.874Z,10.00
2018-07-12T20:57:59.144Z,12.78
2018-07-12T21:00:27.848Z,13.40
2018-07-12T21:02:56.109Z,13.85
2018-07-12T21:05:24.429Z,11.85
2018-07-12T21:07:52.711Z,9.20
2018-07-12T21:10:21.012Z,10.10
2018-07-12T21:12:49.317Z,9.03
2018-07-12T21:15:17.862Z,9.55
2018-07-12T21:17:46.207Z,8.18
2018-07-12T21:20:14.453Z,7.72
2018-07-12T21:22:42.762Z,8.23
2018-07-12T21:25:11.000Z,7.08
2018-07-12T21:27:39.311Z,7.47
2018-07-12T21:30:08.835Z,6.80
2018-07-12T21:32:37.154Z,7.67
2018-07-12T21:35:05.737Z,7.10
2018-07-12T21:37:34.059Z,7.10
2018-07-12T21:40:02.344Z,6.78
2018-07-12T21:42:30.604Z,7.45
2018-07-12T21:44:58.839Z,7.80
2018-07-12T21:47:27.159Z,7.08
2018-07-12T21:49:55.428Z,7.50
2018-07-12T21:52:24.140Z,7.25
2018-07-12T21:54:52.399Z,7.40
2018-07-12T21:57:20.631Z,8.18
2018-07-12T21:59:48.875Z,7.00
2018-07-12T22:02:17.642Z,8.28
2018-07-12T22:04:45.915Z,7.50
2018-07-12T22:07:22.399Z,6.97
2018-07-12T22:09:50.656Z,7.53
2018-07-12T22:12:18.943Z,6.70
2018-07-12T22:14:47.628Z,7.60
2018-07-12T22:17:16.230Z,7.53
2018-07-12T22:19:44.584Z,7.65
2018-07-12T22:22:12.813Z,8.28
2018-07-12T22:24:41.215Z,8.35
2018-07-12T22:27:09.428Z,7.25
2018-07-12T22:29:37.691Z,7.58
2018-07-12T22:32:06.784Z,7.37
2018-07-12T22:34:35.032Z,8.50
2018-07-12T22:37:03.627Z,8.10
2018-07-12T22:39:32.029Z,8.23
2018-07-12T22:42:00.260Z,7.35
2018-07-12T22:44:28.575Z,8.00
2018-07-12T22:46:56.815Z,7.70
2018-07-12T22:49:25.036Z,7.78
2018-07-12T22:51:53.448Z,7.85
2018-07-12T22:54:21.678Z,7.62
2018-07-12T22:56:50.785Z,7.45
2018-07-12T22:59:19.016Z,8.13
2018-07-12T23:01:47.331Z,8.35
2018-07-12T23:04:15.598Z,8.45
2018-07-12T23:06:43.869Z,8.33
2018-07-12T23:09:12.496Z,7.90
2018-07-12T23:11:40.719Z,7.25
2018-07-12T23:14:09.019Z,8.10
2018-07-12T23:16:37.404Z,7.95
2018-07-12T23:19:05.681Z,7.47
2018-07-12T23:21:33.941Z,7.40
2018-07-12T23:24:02.237Z,8.28
2018-07-12T23:26:30.556Z,8.85
2018-07-12T23:28:58.856Z,7.22
2018-07-12T23:31:27.383Z,8.10
2018-07-12T23:33:55.642Z,8.83
2018-07-12T23:36:24.022Z,6.85
2018-07-12T23:38:52.289Z,7.78
2018-07-12T23:41:20.540Z,9.88
2018-07-12T23:43:48.891Z,10.10
2018-07-12T23:46:17.132Z,9.83
2018-07-12T23:48:45.362Z,11.43
2018-07-12T23:51:13.667Z,12.25
2018-07-12T23:53:41.963Z,9.95
2018-07-12T23:56:10.251Z,9.68
2018-07-12T23:58:38.483Z,9.23
